Time;durP1;ratioP1;P1;durP2;ratioP2;P2;SDS_P1;SDS_P2;PMS_P1;PMS_P2;Temp;Humidity;BMP_temperature;BMP_pressure;BME280_temperature;BME280_humidity;BME280_pressure;Samples;Min_cycle;Max_cycle;Signal;HPM_P1;HPM_P2
2023/03/31 00:00:31;;;;;;;0.73;0.60;;;;;;;;;;5096837;28;20800;-61
2023/03/31 00:02:58;;;;;;;0.65;0.50;;;;;;;;;;5097085;28;20696;-61
2023/03/31 00:05:26;;;;;;;0.68;0.68;;;;;;;;;;5097284;28;20303;-61
2023/03/31 00:08:00;;;;;;;0.60;0.60;;;;;;;;;;5097280;28;20568;-61
2023/03/31 00:10:30;;;;;;;0.75;0.50;;;;;;;;;;5096759;28;20817;-61
2023/03/31 00:12:58;;;;;;;0.73;0.70;;;;;;;;;;5097175;28;20212;-61
2023/03/31 00:15:26;;;;;;;0.60;0.60;;;;;;;;;;5097014;28;20562;-61
2023/03/31 00:17:53;;;;;;;0.70;0.60;;;;;;;;;;5096616;28;20264;-61
2023/03/31 00:20:21;;;;;;;0.50;0.47;;;;;;;;;;5096943;28;20633;-61
2023/03/31 00:22:49;;;;;;;0.73;0.70;;;;;;;;;;5097045;28;20298;-61
2023/03/31 00:25:17;;;;;;;0.65;0.57;;;;;;;;;;5096381;28;20203;-61
2023/03/31 00:27:49;;;;;;;0.50;0.50;;;;;;;;;;5097238;28;20317;-61
2023/03/31 00:30:16;;;;;;;0.50;0.50;;;;;;;;;;5097512;28;20482;-61
2023/03/31 00:32:44;;;;;;;0.50;0.50;;;;;;;;;;5096810;28;20208;-61
2023/03/31 00:35:12;;;;;;;0.60;0.60;;;;;;;;;;5097435;28;20247;-61
2023/03/31 00:37:39;;;;;;;0.60;0.60;;;;;;;;;;5097080;28;20199;-61
2023/03/31 00:40:08;;;;;;;0.73;0.70;;;;;;;;;;5096945;28;20257;-61
2023/03/31 00:42:40;;;;;;;0.55;0.55;;;;;;;;;;5097045;28;20204;-61
2023/03/31 00:45:26;;;;;;;0.57;0.57;;;;;;;;;;5097030;28;20310;-62
2023/03/31 00:47:54;;;;;;;0.70;0.60;;;;;;;;;;5096984;28;20223;-62
2023/03/31 00:50:24;;;;;;;1.00;0.60;;;;;;;;;;5096913;28;20235;-62
2023/03/31 00:52:54;;;;;;;0.38;0.38;;;;;;;;;;5097028;28;20203;-62
2023/03/31 00:55:24;;;;;;;0.63;0.60;;;;;;;;;;5097159;28;20564;-62
2023/03/31 00:57:54;;;;;;;0.60;0.50;;;;;;;;;;5096333;28;20300;-62
2023/03/31 01:00:22;;;;;;;0.43;0.43;;;;;;;;;;5097057;28;20211;-62
2023/03/31 01:02:54;;;;;;;0.52;0.50;;;;;;;;;;5097218;28;20203;-62
2023/03/31 01:05:23;;;;;;;0.80;0.55;;;;;;;;;;5096569;28;20233;-62
2023/03/31 01:07:52;;;;;;;1.02;0.57;;;;;;;;;;5095459;28;20227;-62
2023/03/31 01:10:19;;;;;;;0.70;0.50;;;;;;;;;;5097222;28;20215;-62
2023/03/31 01:12:49;;;;;;;0.50;0.50;;;;;;;;;;5096804;28;20580;-62
2023/03/31 01:15:17;;;;;;;0.63;0.50;;;;;;;;;;5096859;28;20541;-62
2023/03/31 01:17:46;;;;;;;0.40;0.40;;;;;;;;;;5096262;28;20294;-62
2023/03/31 01:20:18;;;;;;;1.10;0.50;;;;;;;;;;5096840;28;20269;-62
2023/03/31 01:22:58;;;;;;;0.60;0.50;;;;;;;;;;5096192;28;20540;-62
2023/03/31 01:25:54;;;;;;;0.68;0.50;;;;;;;;;;5097081;28;20482;-62
2023/03/31 01:28:26;;;;;;;0.60;0.60;;;;;;;;;;5096141;28;20223;-62
2023/03/31 01:31:24;;;;;;;0.52;0.50;;;;;;;;;;5096443;28;20203;-62
2023/03/31 01:34:01;;;;;;;0.50;0.40;;;;;;;;;;5096558;28;20571;-62
2023/03/31 01:36:45;;;;;;;0.60;0.60;;;;;;;;;;5096776;28;20486;-62
2023/03/31 01:39:31;;;;;;;0.65;0.47;;;;;;;;;;5096164;28;20207;-62
2023/03/31 01:42:04;;;;;;;0.75;0.60;;;;;;;;;;5096534;28;20208;-62
2023/03/31 01:44:34;;;;;;;0.40;0.40;;;;;;;;;;5096817;28;20290;-62
2023/03/31 01:47:03;;;;;;;0.52;0.50;;;;;;;;;;5096307;28;20545;-62
2023/03/31 01:49:34;;;;;;;0.50;0.40;;;;;;;;;;5096302;28;20251;-62
2023/03/31 01:52:05;;;;;;;0.40;0.40;;;;;;;;;;5097487;28;20203;-62
2023/03/31 01:54:38;;;;;;;0.50;0.43;;;;;;;;;;5099724;28;20243;-62
2023/03/31 01:57:11;;;;;;;0.60;0.60;;;;;;;;;;5098871;28;20232;-62
2023/03/31 01:59:41;;;;;;;0.57;0.50;;;;;;;;;;5100078;28;20306;-62
2023/03/31 02:02:11;;;;;;;0.57;0.43;;;;;;;;;;5099797;28;20203;-62
2023/03/31 02:04:41;;;;;;;0.60;0.40;;;;;;;;;;5099516;28;20212;-62
2023/03/31 02:07:11;;;;;;;0.60;0.50;;;;;;;;;;5099602;28;20262;-62
2023/03/31 02:09:42;;;;;;;0.60;0.55;;;;;;;;;;5099936;28;20239;-62
2023/03/31 02:12:12;;;;;;;0.60;0.60;;;;;;;;;;5099853;28;20288;-62
2023/03/31 02:14:42;;;;;;;0.60;0.50;;;;;;;;;;5100280;28;20203;-62
2023/03/31 02:17:13;;;;;;;0.40;0.40;;;;;;;;;;5099921;28;20226;-62
2023/03/31 02:19:41;;;;;;;0.60;0.60;;;;;;;;;;5099489;28;20231;-62
2023/03/31 02:22:10;;;;;;;0.40;0.40;;;;;;;;;;5099862;28;20499;-62
2023/03/31 02:24:39;;;;;;;0.50;0.50;;;;;;;;;;5099499;28;20317;-62
2023/03/31 02:27:09;;;;;;;0.57;0.52;;;;;;;;;;5099287;28;20235;-62
2023/03/31 02:29:38;;;;;;;0.45;0.45;;;;;;;;;;5099838;28;20546;-62
2023/03/31 02:32:10;;;;;;;0.43;0.43;;;;;;;;;;5099710;28;20492;-62
2023/03/31 02:34:37;;;;;;;0.57;0.50;;;;;;;;;;5099592;28;20242;-62
2023/03/31 02:37:06;;;;;;;0.50;0.50;;;;;;;;;;5099533;28;20207;-62
2023/03/31 02:39:35;;;;;;;0.50;0.50;;;;;;;;;;5099251;28;20297;-62
2023/03/31 02:42:06;;;;;;;0.47;0.40;;;;;;;;;;5099292;28;20203;-61
2023/03/31 02:44:33;;;;;;;0.50;0.50;;;;;;;;;;5098825;28;20381;-61
2023/03/31 02:47:03;;;;;;;0.40;0.40;;;;;;;;;;5098892;28;20195;-61
2023/03/31 02:49:30;;;;;;;0.50;0.50;;;;;;;;;;5098996;28;20611;-61
2023/03/31 02:52:07;;;;;;;0.57;0.45;;;;;;;;;;5099087;28;20887;-61
2023/03/31 02:54:46;;;;;;;0.50;0.50;;;;;;;;;;5099037;28;20212;-61
2023/03/31 02:57:19;;;;;;;0.52;0.40;;;;;;;;;;5098729;28;20234;-62
2023/03/31 02:59:52;;;;;;;0.65;0.55;;;;;;;;;;5098644;28;20285;-62
2023/03/31 03:02:27;;;;;;;0.70;0.60;;;;;;;;;;5098577;28;20285;-62
2023/03/31 03:05:06;;;;;;;0.43;0.43;;;;;;;;;;5097559;28;20211;-62
2023/03/31 03:07:37;;;;;;;0.50;0.50;;;;;;;;;;5098538;28;20253;-62
2023/03/31 03:10:07;;;;;;;0.75;0.40;;;;;;;;;;5098812;28;20204;-62
2023/03/31 03:12:38;;;;;;;0.75;0.40;;;;;;;;;;5098505;28;20770;-62
2023/03/31 03:15:09;;;;;;;0.60;0.60;;;;;;;;;;5098668;28;20211;-62
2023/03/31 03:17:40;;;;;;;0.52;0.50;;;;;;;;;;5098254;28;20210;-63
2023/03/31 03:20:09;;;;;;;0.45;0.45;;;;;;;;;;5097795;28;20203;-62
2023/03/31 03:22:37;;;;;;;0.70;0.60;;;;;;;;;;5098264;28;20264;-62
2023/03/31 03:25:05;;;;;;;0.50;0.50;;;;;;;;;;5097929;28;20279;-62
2023/03/31 03:27:34;;;;;;;0.32;0.32;;;;;;;;;;5097675;28;20258;-62
2023/03/31 03:30:03;;;;;;;0.50;0.50;;;;;;;;;;5098280;28;20250;-62
2023/03/31 03:32:32;;;;;;;0.47;0.47;;;;;;;;;;5098101;28;20268;-62
2023/03/31 03:35:01;;;;;;;0.55;0.55;;;;;;;;;;5097886;28;20204;-62
2023/03/31 03:37:28;;;;;;;0.80;0.55;;;;;;;;;;5097962;28;20273;-62
2023/03/31 03:39:56;;;;;;;0.68;0.68;;;;;;;;;;5097003;28;20269;-62
2023/03/31 03:42:24;;;;;;;0.63;0.45;;;;;;;;;;5098088;28;20231;-62
2023/03/31 03:44:51;;;;;;;0.98;0.50;;;;;;;;;;5097575;28;20212;-62
2023/03/31 03:47:19;;;;;;;0.40;0.40;;;;;;;;;;5097562;28;20268;-62
2023/03/31 03:49:47;;;;;;;0.60;0.60;;;;;;;;;;5097180;28;20257;-62
2023/03/31 03:52:16;;;;;;;0.60;0.40;;;;;;;;;;5097252;28;20268;-62
2023/03/31 03:54:44;;;;;;;0.50;0.30;;;;;;;;;;5097462;28;20292;-62
2023/03/31 03:57:11;;;;;;;0.63;0.40;;;;;;;;;;5096810;28;20519;-62
2023/03/31 03:59:39;;;;;;;0.55;0.40;;;;;;;;;;5097917;28;20307;-62
2023/03/31 04:02:06;;;;;;;0.50;0.50;;;;;;;;;;5096754;28;20678;-62
2023/03/31 04:04:33;;;;;;;0.47;0.47;;;;;;;;;;5096330;28;20204;-61
2023/03/31 04:07:01;;;;;;;0.75;0.40;;;;;;;;;;5096805;28;20199;-61
2023/03/31 04:09:29;;;;;;;0.50;0.50;;;;;;;;;;5096596;28;20235;-61
2023/03/31 04:11:57;;;;;;;0.45;0.45;;;;;;;;;;5096860;28;20273;-61
2023/03/31 04:14:24;;;;;;;0.60;0.60;;;;;;;;;;5097128;28;20214;-61
2023/03/31 04:16:55;;;;;;;0.60;0.40;;;;;;;;;;5095289;28;20203;-61
2023/03/31 04:19:24;;;;;;;0.93;0.40;;;;;;;;;;5095813;28;20591;-61
2023/03/31 04:22:03;;;;;;;0.40;0.40;;;;;;;;;;5095834;28;20294;-61
2023/03/31 04:24:32;;;;;;;0.52;0.50;;;;;;;;;;5095809;28;20213;-61
2023/03/31 04:27:01;;;;;;;0.90;0.50;;;;;;;;;;5096560;28;20242;-61
2023/03/31 04:29:32;;;;;;;0.52;0.43;;;;;;;;;;5096835;28;20239;-61
2023/03/31 04:31:59;;;;;;;0.40;0.40;;;;;;;;;;5095929;28;20204;-61
2023/03/31 04:34:33;;;;;;;0.82;0.40;;;;;;;;;;5095924;28;20203;-61
2023/03/31 04:37:01;;;;;;;0.30;0.30;;;;;;;;;;5095959;28;20201;-61
2023/03/31 04:39:29;;;;;;;0.45;0.45;;;;;;;;;;5095884;28;20235;-61
2023/03/31 04:41:58;;;;;;;0.63;0.57;;;;;;;;;;5096480;28;20207;-61
2023/03/31 04:44:25;;;;;;;0.50;0.40;;;;;;;;;;5096276;28;20475;-61
2023/03/31 04:46:53;;;;;;;0.52;0.40;;;;;;;;;;5095190;28;20231;-61
2023/03/31 04:49:20;;;;;;;0.75;0.60;;;;;;;;;;5094996;28;20223;-61
2023/03/31 04:51:47;;;;;;;0.50;0.50;;;;;;;;;;5095166;28;20467;-61
2023/03/31 04:54:15;;;;;;;0.47;0.43;;;;;;;;;;5095176;28;20204;-61
2023/03/31 04:56:42;;;;;;;0.47;0.40;;;;;;;;;;5094449;28;20239;-61
2023/03/31 04:59:11;;;;;;;0.50;0.40;;;;;;;;;;5094682;28;20206;-61
2023/03/31 05:01:43;;;;;;;0.63;0.40;;;;;;;;;;5093912;28;20204;-61
2023/03/31 05:04:11;;;;;;;0.43;0.40;;;;;;;;;;5095059;28;20218;-61
2023/03/31 05:06:38;;;;;;;0.30;0.30;;;;;;;;;;5095153;28;20204;-61
2023/03/31 05:09:06;;;;;;;0.47;0.47;;;;;;;;;;5093954;28;20227;-62
2023/03/31 05:11:33;;;;;;;1.15;0.40;;;;;;;;;;5093151;28;20215;-62
2023/03/31 05:14:00;;;;;;;0.43;0.43;;;;;;;;;;5092543;28;20195;-62
2023/03/31 05:16:29;;;;;;;0.40;0.40;;;;;;;;;;5093467;28;20211;-62
2023/03/31 05:18:56;;;;;;;0.50;0.45;;;;;;;;;;5092177;28;20200;-62
2023/03/31 05:21:25;;;;;;;0.40;0.40;;;;;;;;;;5093753;28;20206;-62
2023/03/31 05:23:53;;;;;;;0.60;0.50;;;;;;;;;;5093508;28;20294;-62
2023/03/31 05:26:21;;;;;;;0.73;0.40;;;;;;;;;;5093336;28;20207;-62
2023/03/31 05:28:49;;;;;;;0.40;0.40;;;;;;;;;;5097332;28;20224;-62
2023/03/31 05:31:16;;;;;;;0.47;0.47;;;;;;;;;;5097093;28;20743;-62
2023/03/31 05:33:45;;;;;;;0.50;0.50;;;;;;;;;;5095549;28;20203;-62
2023/03/31 05:36:16;;;;;;;0.45;0.40;;;;;;;;;;5096749;28;20211;-62
2023/03/31 05:38:44;;;;;;;0.50;0.32;;;;;;;;;;5096639;28;20207;-62
2023/03/31 05:41:12;;;;;;;0.30;0.30;;;;;;;;;;5097369;28;20614;-62
2023/03/31 05:43:39;;;;;;;0.50;0.50;;;;;;;;;;5097530;28;20227;-62
2023/03/31 05:46:06;;;;;;;0.50;0.50;;;;;;;;;;5097061;28;20599;-62
2023/03/31 05:48:34;;;;;;;0.63;0.40;;;;;;;;;;5096806;28;20231;-62
2023/03/31 05:51:03;;;;;;;1.20;0.50;;;;;;;;;;5095770;28;20212;-62
2023/03/31 05:53:30;;;;;;;0.50;0.50;;;;;;;;;;5097108;28;20214;-62
2023/03/31 05:55:58;;;;;;;0.50;0.28;;;;;;;;;;5096449;28;20251;-62
2023/03/31 05:58:25;;;;;;;0.57;0.50;;;;;;;;;;5097354;28;20297;-61
2023/03/31 06:01:01;;;;;;;0.73;0.47;;;;;;;;;;5098050;28;20203;-61
2023/03/31 06:03:28;;;;;;;0.40;0.40;;;;;;;;;;5097181;28;20803;-61
2023/03/31 06:05:56;;;;;;;0.50;0.50;;;;;;;;;;5096850;28;20199;-61
2023/03/31 06:08:25;;;;;;;1.35;0.40;;;;;;;;;;5097747;28;20712;-61
2023/03/31 06:10:53;;;;;;;0.55;0.55;;;;;;;;;;5097314;28;20199;-61
2023/03/31 06:13:20;;;;;;;1.30;0.60;;;;;;;;;;5097744;28;20204;-61
2023/03/31 06:15:53;;;;;;;0.68;0.30;;;;;;;;;;5098003;28;20485;-61
2023/03/31 06:18:21;;;;;;;0.43;0.40;;;;;;;;;;5098022;28;20199;-61
2023/03/31 06:20:48;;;;;;;1.58;0.68;;;;;;;;;;5097449;28;20226;-61
2023/03/31 06:23:15;;;;;;;0.57;0.50;;;;;;;;;;5097846;28;20207;-62
2023/03/31 06:25:44;;;;;;;1.00;0.70;;;;;;;;;;5098955;28;20214;-62
2023/03/31 06:28:11;;;;;;;0.60;0.55;;;;;;;;;;5097938;28;20688;-62
2023/03/31 06:30:39;;;;;;;0.60;0.50;;;;;;;;;;5097967;28;20203;-62
2023/03/31 06:33:06;;;;;;;1.50;0.50;;;;;;;;;;5097905;28;20630;-62
2023/03/31 06:35:33;;;;;;;1.00;0.52;;;;;;;;;;5098920;28;20215;-62
2023/03/31 06:38:00;;;;;;;1.77;0.47;;;;;;;;;;5096956;28;20195;-62
2023/03/31 06:40:28;;;;;;;1.10;0.60;;;;;;;;;;5097584;28;20203;-62
2023/03/31 06:42:56;;;;;;;1.02;0.60;;;;;;;;;;5096862;28;20203;-62
2023/03/31 06:45:24;;;;;;;0.60;0.50;;;;;;;;;;5097915;28;20200;-62
2023/03/31 06:47:51;;;;;;;0.73;0.50;;;;;;;;;;5097488;28;20214;-62
2023/03/31 06:50:18;;;;;;;1.20;0.60;;;;;;;;;;5097260;28;20223;-62
2023/03/31 06:52:46;;;;;;;2.45;0.63;;;;;;;;;;5097985;28;20268;-62
2023/03/31 06:55:14;;;;;;;1.67;0.60;;;;;;;;;;5097667;28;20765;-62
2023/03/31 06:57:42;;;;;;;1.05;0.60;;;;;;;;;;5096666;28;20270;-62
2023/03/31 07:00:11;;;;;;;1.30;0.70;;;;;;;;;;5097003;28;20207;-62
2023/03/31 07:02:39;;;;;;;0.40;0.38;;;;;;;;;;5096973;28;20211;-62
2023/03/31 07:05:06;;;;;;;1.35;0.75;;;;;;;;;;5096609;28;20706;-62
2023/03/31 07:07:34;;;;;;;0.80;0.60;;;;;;;;;;5096747;28;20218;-62
2023/03/31 07:10:01;;;;;;;1.10;0.50;;;;;;;;;;5096423;28;20223;-61
2023/03/31 07:12:29;;;;;;;1.17;0.60;;;;;;;;;;5096780;28;20204;-62
2023/03/31 07:14:56;;;;;;;0.57;0.50;;;;;;;;;;5096861;28;20203;-62
2023/03/31 07:17:25;;;;;;;0.82;0.60;;;;;;;;;;5096531;28;20211;-62
2023/03/31 07:19:52;;;;;;;0.98;0.57;;;;;;;;;;5096430;28;20238;-62
2023/03/31 07:22:19;;;;;;;2.78;0.88;;;;;;;;;;5095207;28;20215;-62
2023/03/31 07:24:47;;;;;;;1.88;0.50;;;;;;;;;;5096702;28;20211;-62
2023/03/31 07:27:14;;;;;;;1.85;0.60;;;;;;;;;;5096034;28;20651;-62
2023/03/31 07:29:41;;;;;;;1.13;0.70;;;;;;;;;;5096251;28;20237;-62
2023/03/31 07:32:08;;;;;;;1.15;0.63;;;;;;;;;;5095569;28;20207;-62
2023/03/31 07:34:39;;;;;;;2.10;0.57;;;;;;;;;;5095128;28;20203;-62
2023/03/31 07:37:07;;;;;;;0.80;0.50;;;;;;;;;;5096572;28;20258;-62
2023/03/31 07:39:36;;;;;;;0.60;0.60;;;;;;;;;;5095850;28;20576;-62
2023/03/31 07:42:03;;;;;;;0.93;0.55;;;;;;;;;;5096348;28;20243;-62
2023/03/31 07:44:30;;;;;;;0.77;0.70;;;;;;;;;;5095942;28;20219;-62
2023/03/31 07:47:00;;;;;;;1.02;0.65;;;;;;;;;;5095960;28;20203;-62
2023/03/31 07:49:27;;;;;;;0.85;0.60;;;;;;;;;;5095376;28;20220;-62
2023/03/31 07:51:56;;;;;;;0.95;0.60;;;;;;;;;;5095356;28;20203;-62
2023/03/31 07:54:23;;;;;;;0.80;0.60;;;;;;;;;;5096199;28;20212;-62
2023/03/31 07:56:51;;;;;;;0.55;0.50;;;;;;;;;;5095199;28;20635;-62
2023/03/31 07:59:18;;;;;;;0.80;0.60;;;;;;;;;;5095653;28;20231;-62
2023/03/31 08:01:46;;;;;;;1.05;0.70;;;;;;;;;;5095944;28;20203;-62
2023/03/31 08:04:13;;;;;;;1.35;0.60;;;;;;;;;;5095868;28;20211;-62
2023/03/31 08:06:41;;;;;;;0.80;0.50;;;;;;;;;;5094522;28;20286;-62
2023/03/31 08:09:09;;;;;;;0.82;0.50;;;;;;;;;;5095551;28;20491;-62
2023/03/31 08:11:37;;;;;;;0.60;0.60;;;;;;;;;;5095202;28;20211;-62
2023/03/31 08:14:04;;;;;;;0.73;0.50;;;;;;;;;;5095386;28;20214;-62
2023/03/31 08:16:31;;;;;;;0.75;0.65;;;;;;;;;;5095140;28;20828;-62
2023/03/31 08:19:00;;;;;;;0.70;0.50;;;;;;;;;;5094858;28;20207;-62
2023/03/31 08:21:28;;;;;;;0.80;0.68;;;;;;;;;;5095314;28;20307;-62
2023/03/31 08:23:55;;;;;;;0.80;0.68;;;;;;;;;;5095113;28;20214;-62
2023/03/31 08:26:24;;;;;;;0.98;0.63;;;;;;;;;;5095466;28;20213;-62
2023/03/31 08:28:52;;;;;;;0.63;0.60;;;;;;;;;;5095536;28;20208;-62
2023/03/31 08:31:22;;;;;;;0.47;0.40;;;;;;;;;;5095483;28;20211;-62
2023/03/31 08:33:50;;;;;;;0.80;0.63;;;;;;;;;;5095549;28;20477;-62
2023/03/31 08:36:17;;;;;;;1.15;0.50;;;;;;;;;;5095194;28;20239;-62
2023/03/31 08:38:46;;;;;;;0.60;0.60;;;;;;;;;;5095542;28;20288;-62
2023/03/31 08:41:23;;;;;;;1.40;0.60;;;;;;;;;;5095437;28;20230;-62
2023/03/31 08:43:54;;;;;;;0.75;0.60;;;;;;;;;;5094994;28;20577;-62
2023/03/31 08:46:22;;;;;;;1.25;0.70;;;;;;;;;;5095502;28;20207;-62
2023/03/31 08:48:53;;;;;;;1.17;0.70;;;;;;;;;;5094509;28;20196;-62
2023/03/31 08:51:23;;;;;;;0.52;0.52;;;;;;;;;;5094366;28;20287;-62
2023/03/31 08:53:52;;;;;;;1.08;0.60;;;;;;;;;;5094879;28;20211;-62
2023/03/31 08:56:22;;;;;;;0.70;0.60;;;;;;;;;;5095684;28;20513;-62
2023/03/31 08:58:50;;;;;;;1.35;0.50;;;;;;;;;;5095272;28;20674;-62
2023/03/31 09:01:25;;;;;;;1.70;0.70;;;;;;;;;;5095330;28;20199;-62
2023/03/31 09:04:03;;;;;;;1.70;0.55;;;;;;;;;;5099107;28;20218;-62
2023/03/31 09:06:37;;;;;;;0.68;0.60;;;;;;;;;;5098308;28;20215;-62
2023/03/31 09:09:08;;;;;;;1.48;0.80;;;;;;;;;;5098721;28;20605;-62
2023/03/31 09:11:37;;;;;;;1.35;0.80;;;;;;;;;;5099128;28;20199;-62
2023/03/31 09:14:12;;;;;;;1.02;0.63;;;;;;;;;;5098674;28;20613;-62
2023/03/31 09:16:43;;;;;;;0.77;0.60;;;;;;;;;;5097941;28;20229;-62
2023/03/31 09:19:15;;;;;;;0.90;0.60;;;;;;;;;;5099105;28;20208;-62
2023/03/31 09:21:44;;;;;;;0.85;0.70;;;;;;;;;;5098703;28;20512;-62
2023/03/31 09:24:14;;;;;;;0.95;0.73;;;;;;;;;;5098640;28;20603;-62
2023/03/31 09:26:43;;;;;;;1.98;0.63;;;;;;;;;;5098315;28;20212;-62
2023/03/31 09:29:17;;;;;;;2.05;0.88;;;;;;;;;;5098291;28;20242;-62
2023/03/31 09:31:47;;;;;;;0.82;0.60;;;;;;;;;;5098563;28;20234;-62
2023/03/31 09:34:16;;;;;;;1.42;0.80;;;;;;;;;;5097783;28;20211;-62
2023/03/31 09:36:44;;;;;;;1.77;0.90;;;;;;;;;;5096456;28;20242;-62
2023/03/31 09:39:15;;;;;;;1.05;0.90;;;;;;;;;;5097135;28;20206;-62
2023/03/31 09:41:45;;;;;;;2.05;1.00;;;;;;;;;;5098309;28;20230;-62
2023/03/31 09:44:23;;;;;;;1.30;0.90;;;;;;;;;;5098253;28;20455;-62
2023/03/31 09:46:52;;;;;;;2.03;0.80;;;;;;;;;;5098214;28;20210;-62
2023/03/31 09:49:20;;;;;;;1.92;1.02;;;;;;;;;;5097765;28;20227;-62
2023/03/31 09:51:51;;;;;;;1.33;0.90;;;;;;;;;;5097708;28;20211;-62
2023/03/31 09:54:22;;;;;;;1.35;0.93;;;;;;;;;;5097632;28;20207;-62
2023/03/31 09:56:52;;;;;;;1.08;0.80;;;;;;;;;;5097492;28;20670;-62
2023/03/31 09:59:20;;;;;;;3.30;1.10;;;;;;;;;;5097362;28;20206;-62
2023/03/31 10:01:50;;;;;;;1.80;1.00;;;;;;;;;;5097161;28;20211;-62
2023/03/31 10:04:24;;;;;;;1.50;1.00;;;;;;;;;;5097133;28;20211;-62
2023/03/31 10:06:52;;;;;;;0.82;0.80;;;;;;;;;;5097214;28;20208;-62
2023/03/31 10:09:22;;;;;;;1.35;1.10;;;;;;;;;;5097581;28;20269;-62
2023/03/31 10:11:53;;;;;;;1.60;1.02;;;;;;;;;;5097480;28;20612;-62
2023/03/31 10:14:25;;;;;;;1.77;1.33;;;;;;;;;;5095063;28;20209;-62
2023/03/31 10:16:54;;;;;;;1.85;1.13;;;;;;;;;;5096742;28;20671;-62
2023/03/31 10:19:24;;;;;;;1.65;0.90;;;;;;;;;;5096822;28;20254;-62
2023/03/31 10:21:56;;;;;;;1.52;1.05;;;;;;;;;;5097407;28;20536;-62
2023/03/31 10:24:23;;;;;;;2.75;1.00;;;;;;;;;;5097162;28;20233;-62
2023/03/31 10:26:53;;;;;;;1.10;1.00;;;;;;;;;;5096184;28;20204;-62
2023/03/31 10:29:24;;;;;;;1.40;1.00;;;;;;;;;;5096238;28;20214;-62
2023/03/31 10:31:52;;;;;;;1.13;1.00;;;;;;;;;;5096334;28;20225;-62
2023/03/31 10:34:20;;;;;;;1.35;1.02;;;;;;;;;;5096576;28;20212;-62
2023/03/31 10:36:50;;;;;;;1.60;1.08;;;;;;;;;;5096132;28;20204;-62
2023/03/31 10:39:18;;;;;;;1.77;1.20;;;;;;;;;;5096624;28;20658;-62
2023/03/31 10:41:50;;;;;;;2.22;1.35;;;;;;;;;;5096494;28;20203;-61
2023/03/31 10:44:34;;;;;;;1.52;1.30;;;;;;;;;;5096407;28;20574;-62
2023/03/31 10:47:06;;;;;;;1.83;1.13;;;;;;;;;;5096142;28;20204;-62
2023/03/31 10:49:38;;;;;;;1.67;1.13;;;;;;;;;;5095737;28;20211;-62
2023/03/31 10:52:16;;;;;;;1.75;1.25;;;;;;;;;;5095896;28;20231;-62
2023/03/31 10:54:47;;;;;;;2.15;1.17;;;;;;;;;;5096176;28;20213;-61
2023/03/31 10:57:15;;;;;;;1.65;1.15;;;;;;;;;;5095775;28;20314;-60
2023/03/31 10:59:49;;;;;;;1.75;1.30;;;;;;;;;;5095422;28;20199;-60
2023/03/31 11:02:23;;;;;;;1.30;1.20;;;;;;;;;;5096042;28;20244;-62
2023/03/31 11:04:56;;;;;;;1.38;1.17;;;;;;;;;;5095824;28;20208;-60
2023/03/31 11:07:36;;;;;;;1.63;1.10;;;;;;;;;;5096020;28;20203;-62
2023/03/31 11:10:15;;;;;;;1.55;1.40;;;;;;;;;;5096101;28;20251;-61
2023/03/31 11:12:45;;;;;;;1.50;1.08;;;;;;;;;;5096522;28;20229;-61
2023/03/31 11:15:18;;;;;;;1.33;1.20;;;;;;;;;;5096018;28;20204;-62
2023/03/31 11:17:53;;;;;;;1.33;1.20;;;;;;;;;;5095668;28;20200;-61
2023/03/31 11:20:27;;;;;;;1.83;1.02;;;;;;;;;;5096561;28;20203;-61
2023/03/31 11:23:01;;;;;;;1.45;1.10;;;;;;;;;;5096960;28;20215;-62
2023/03/31 11:25:36;;;;;;;1.60;1.10;;;;;;;;;;5094650;28;20260;-62
2023/03/31 11:28:17;;;;;;;1.63;1.20;;;;;;;;;;5094828;28;20298;-62
2023/03/31 11:30:47;;;;;;;1.55;1.20;;;;;;;;;;5095003;28;20230;-62
2023/03/31 11:33:27;;;;;;;1.10;1.00;;;;;;;;;;5095551;28;20488;-62
2023/03/31 11:36:00;;;;;;;1.65;1.15;;;;;;;;;;5094747;28;20203;-62
2023/03/31 11:38:37;;;;;;;2.13;1.30;;;;;;;;;;5093903;28;20204;-62
2023/03/31 11:41:06;;;;;;;1.38;1.25;;;;;;;;;;5094341;28;20191;-62
2023/03/31 11:43:36;;;;;;;1.75;1.27;;;;;;;;;;5094093;28;20297;-62
2023/03/31 11:46:05;;;;;;;1.05;0.90;;;;;;;;;;5093157;28;20261;-62
2023/03/31 11:48:37;;;;;;;1.35;1.20;;;;;;;;;;5094294;28;20655;-62
2023/03/31 11:51:05;;;;;;;1.17;1.08;;;;;;;;;;5093811;28;20490;-62
2023/03/31 11:53:36;;;;;;;1.98;1.30;;;;;;;;;;5093601;28;20207;-62
2023/03/31 11:56:06;;;;;;;1.10;1.00;;;;;;;;;;5092695;28;20335;-62
2023/03/31 11:58:36;;;;;;;1.20;1.00;;;;;;;;;;5094161;28;20458;-62
2023/03/31 12:01:07;;;;;;;1.17;1.05;;;;;;;;;;5093983;28;20200;-62
2023/03/31 12:03:38;;;;;;;1.48;1.10;;;;;;;;;;5093766;28;20226;-62
2023/03/31 12:06:11;;;;;;;1.83;1.20;;;;;;;;;;5094374;28;20717;-62
2023/03/31 12:08:45;;;;;;;1.40;1.10;;;;;;;;;;5093641;28;20204;-62
2023/03/31 12:11:15;;;;;;;1.35;1.00;;;;;;;;;;5094051;28;20227;-62
2023/03/31 12:13:47;;;;;;;1.10;1.00;;;;;;;;;;5094129;28;20211;-62
2023/03/31 12:16:16;;;;;;;1.50;1.33;;;;;;;;;;5094875;28;20199;-62
2023/03/31 12:18:47;;;;;;;1.20;1.10;;;;;;;;;;5094806;28;20211;-62
2023/03/31 12:21:14;;;;;;;0.90;0.90;;;;;;;;;;5094076;28;20551;-62
2023/03/31 12:23:44;;;;;;;1.17;1.08;;;;;;;;;;5094400;28;20203;-62
2023/03/31 12:26:17;;;;;;;1.92;1.30;;;;;;;;;;5094065;28;20314;-62
2023/03/31 12:28:45;;;;;;;1.55;1.30;;;;;;;;;;5094737;28;20204;-62
2023/03/31 12:31:16;;;;;;;1.15;1.02;;;;;;;;;;5093772;28;20238;-62
2023/03/31 12:33:44;;;;;;;1.08;0.98;;;;;;;;;;5093468;28;20210;-62
2023/03/31 12:36:17;;;;;;;1.33;1.10;;;;;;;;;;5092447;28;20211;-62
2023/03/31 12:38:57;;;;;;;1.58;1.20;;;;;;;;;;5094415;28;20203;-62
2023/03/31 12:41:27;;;;;;;1.02;0.93;;;;;;;;;;5079841;28;20192;-62
2023/03/31 12:44:02;;;;;;;1.35;1.02;;;;;;;;;;5074114;28;20196;-62
2023/03/31 12:46:48;;;;;;;1.35;1.00;;;;;;;;;;5073855;28;20204;-62
2023/03/31 12:49:20;;;;;;;1.13;1.02;;;;;;;;;;5073702;28;20227;-62
2023/03/31 12:51:55;;;;;;;1.63;0.98;;;;;;;;;;5073700;28;20223;-61
2023/03/31 12:54:36;;;;;;;1.00;0.90;;;;;;;;;;5073469;28;20203;-61
2023/03/31 12:57:05;;;;;;;0.90;0.80;;;;;;;;;;5073228;28;20639;-61
2023/03/31 12:59:33;;;;;;;1.42;1.30;;;;;;;;;;5074071;28;20274;-61
2023/03/31 13:02:15;;;;;;;1.23;1.13;;;;;;;;;;5073968;28;20541;-61
2023/03/31 13:04:43;;;;;;;1.10;1.00;;;;;;;;;;5070529;28;20205;-62
2023/03/31 13:07:13;;;;;;;1.25;1.13;;;;;;;;;;5074226;28;20564;-62
2023/03/31 13:09:56;;;;;;;1.35;1.20;;;;;;;;;;5073679;28;20223;-62
2023/03/31 13:12:26;;;;;;;1.63;1.20;;;;;;;;;;5072947;28;20224;-62
2023/03/31 13:14:57;;;;;;;1.10;1.00;;;;;;;;;;5073973;28;20212;-62
2023/03/31 13:17:27;;;;;;;1.00;0.90;;;;;;;;;;5072560;28;20265;-62
2023/03/31 13:19:55;;;;;;;1.10;0.90;;;;;;;;;;5073424;28;20295;-62
2023/03/31 13:22:32;;;;;;;1.13;0.80;;;;;;;;;;5072906;28;20792;-62
2023/03/31 13:25:27;;;;;;;1.10;1.00;;;;;;;;;;5073514;28;20613;-62
2023/03/31 13:27:56;;;;;;;1.10;0.95;;;;;;;;;;5072923;28;20223;-62
2023/03/31 13:30:50;;;;;;;1.13;0.90;;;;;;;;;;5073638;28;20514;-62
2023/03/31 13:33:20;;;;;;;1.02;0.90;;;;;;;;;;5026120;28;20607;-62
2023/03/31 13:35:48;;;;;;;1.02;0.90;;;;;;;;;;5073222;28;20212;-62
2023/03/31 13:38:20;;;;;;;1.20;0.90;;;;;;;;;;5072975;28;20545;-62
2023/03/31 13:40:53;;;;;;;1.33;1.02;;;;;;;;;;5073177;28;20235;-62
2023/03/31 13:43:32;;;;;;;1.70;1.08;;;;;;;;;;5073885;28;20212;-62
2023/03/31 13:46:08;;;;;;;0.90;0.90;;;;;;;;;;5073509;28;20211;-62
2023/03/31 13:48:44;;;;;;;0.88;0.70;;;;;;;;;;5075351;28;20207;-62
2023/03/31 13:51:24;;;;;;;0.88;0.80;;;;;;;;;;5076849;28;20224;-62
2023/03/31 13:54:19;;;;;;;2.40;1.10;;;;;;;;;;5076759;28;20215;-62
2023/03/31 13:56:55;;;;;;;0.80;0.80;;;;;;;;;;5076775;28;20248;-61
2023/03/31 13:59:40;;;;;;;1.52;1.20;;;;;;;;;;5077012;28;20204;-61
2023/03/31 14:02:26;;;;;;;0.77;0.77;;;;;;;;;;5076890;28;20306;-61
2023/03/31 14:05:01;;;;;;;0.88;0.88;;;;;;;;;;5075621;28;20215;-61
2023/03/31 14:07:32;;;;;;;1.25;0.95;;;;;;;;;;5077859;28;20591;-61
2023/03/31 14:09:59;;;;;;;1.27;1.08;;;;;;;;;;5077385;28;20611;-61
2023/03/31 14:12:31;;;;;;;1.00;0.90;;;;;;;;;;5077200;28;20235;-61
2023/03/31 14:14:58;;;;;;;0.95;0.85;;;;;;;;;;5076275;28;20231;-61
2023/03/31 14:17:27;;;;;;;1.00;0.80;;;;;;;;;;5076891;28;20295;-61
2023/03/31 14:20:07;;;;;;;1.73;0.90;;;;;;;;;;5076235;28;20235;-61
2023/03/31 14:22:43;;;;;;;1.08;0.70;;;;;;;;;;5076417;28;20303;-61
2023/03/31 14:25:14;;;;;;;1.00;0.80;;;;;;;;;;5075705;28;20204;-61
2023/03/31 14:27:52;;;;;;;1.00;0.75;;;;;;;;;;5076346;28;20208;-61
2023/03/31 14:30:26;;;;;;;1.25;0.90;;;;;;;;;;5075730;28;20782;-61
2023/03/31 14:32:59;;;;;;;1.42;0.90;;;;;;;;;;5076653;28;20196;-61
2023/03/31 14:35:32;;;;;;;0.95;0.85;;;;;;;;;;5075811;28;20204;-61
2023/03/31 14:38:00;;;;;;;0.80;0.70;;;;;;;;;;5076595;28;20592;-61
2023/03/31 14:40:28;;;;;;;1.00;0.73;;;;;;;;;;5075913;28;20204;-61
2023/03/31 14:42:55;;;;;;;1.02;0.80;;;;;;;;;;5075375;28;20205;-61
2023/03/31 14:45:24;;;;;;;0.60;0.60;;;;;;;;;;5075485;28;20203;-61
2023/03/31 14:47:55;;;;;;;1.75;0.80;;;;;;;;;;5076179;28;20215;-61
2023/03/31 14:50:22;;;;;;;1.35;0.80;;;;;;;;;;5076161;28;20566;-61
2023/03/31 14:52:52;;;;;;;0.70;0.70;;;;;;;;;;5074933;28;20836;-61
2023/03/31 14:55:23;;;;;;;1.00;0.80;;;;;;;;;;5074441;28;20208;-61
2023/03/31 14:57:52;;;;;;;1.10;0.80;;;;;;;;;;5075125;28;20240;-61
2023/03/31 15:00:24;;;;;;;0.90;0.73;;;;;;;;;;5074831;28;20290;-61
2023/03/31 15:02:51;;;;;;;0.60;0.60;;;;;;;;;;5075650;28;20243;-61